createdAt,value
2022-10-18T00:00:44.999Z,0.25
2022-10-18T00:01:47.211Z,0.4
2022-10-18T00:02:49.144Z,0.43
2022-10-18T00:03:51.094Z,0.51
2022-10-18T00:04:53.033Z,0.66
2022-10-18T00:05:55.071Z,0.49
2022-10-18T00:06:57.092Z,0
2022-10-18T00:07:59.013Z,0
2022-10-18T00:09:00.992Z,0
2022-10-18T00:10:03.171Z,0
2022-10-18T00:11:05.052Z,0
2022-10-18T00:12:07.095Z,0
2022-10-18T00:13:09.093Z,0
2022-10-18T00:14:11.053Z,0
2022-10-18T00:15:13.032Z,0
2022-10-18T00:16:14.914Z,0
2022-10-18T00:17:15.913Z,0
2022-10-18T00:18:16.955Z,0
2022-10-18T00:19:17.932Z,0
2022-10-18T00:20:18.954Z,0
2022-10-18T00:21:19.900Z,0
2022-10-18T00:22:21.132Z,0
2022-10-18T00:23:23.153Z,0
2022-10-18T00:24:25.092Z,0
2022-10-18T00:25:27.112Z,0
2022-10-18T00:26:29.031Z,0
2022-10-18T00:27:31.117Z,0
2022-10-18T00:28:33.012Z,0
2022-10-18T00:29:35.077Z,0
2022-10-18T00:30:37.088Z,0
2022-10-18T00:31:39.559Z,0
2022-10-18T00:32:41.111Z,0
2022-10-18T00:33:43.151Z,0
2022-10-18T00:34:45.052Z,0
2022-10-18T00:35:47.072Z,0
2022-10-18T00:36:49.031Z,0
2022-10-18T00:37:51.098Z,0
2022-10-18T00:38:53.114Z,0
2022-10-18T00:39:55.073Z,0
2022-10-18T00:40:57.074Z,0
2022-10-18T00:41:58.913Z,0
2022-10-18T00:43:00.015Z,0
2022-10-18T00:44:02.131Z,0
2022-10-18T00:45:04.092Z,0
2022-10-18T00:46:06.113Z,0
2022-10-18T00:47:08.409Z,0
2022-10-18T00:48:10.034Z,0
2022-10-18T00:49:11.906Z,0
2022-10-18T00:50:12.892Z,0
2022-10-18T00:51:13.971Z,0
2022-10-18T00:52:16.012Z,0
2022-10-18T00:53:16.911Z,0
2022-10-18T00:54:17.972Z,0
2022-10-18T00:55:18.971Z,0
2022-10-18T00:56:19.952Z,0
2022-10-18T00:57:21.051Z,0
2022-10-18T00:58:23.175Z,0
2022-10-18T00:59:25.033Z,0
2022-10-18T01:00:27.126Z,0
2022-10-18T01:01:29.050Z,0
2022-10-18T01:02:31.510Z,0
2022-10-18T01:03:33.073Z,0
2022-10-18T01:04:34.888Z,0.11
2022-10-18T01:05:36.092Z,0
2022-10-18T01:06:38.132Z,0
2022-10-18T01:07:40.051Z,0
2022-10-18T01:08:42.192Z,0
2022-10-18T01:09:44.092Z,0
2022-10-18T01:10:46.032Z,0
2022-10-18T01:11:47.932Z,0
2022-10-18T01:12:49.045Z,0
2022-10-18T01:13:51.216Z,0
2022-10-18T01:14:53.074Z,0
2022-10-18T01:16:57.034Z,0
2022-10-18T01:17:58.942Z,0
2022-10-18T01:18:59.935Z,0
2022-10-18T01:20:00.992Z,0
2022-10-18T01:21:02.032Z,0
2022-10-18T01:22:02.964Z,0
2022-10-18T01:23:03.852Z,0
2022-10-18T01:24:05.031Z,0
2022-10-18T01:25:05.980Z,0
2022-10-18T01:26:06.959Z,0
2022-10-18T01:27:07.972Z,0
2022-10-18T01:28:09.093Z,0
2022-10-18T01:29:11.216Z,0
2022-10-18T01:30:13.151Z,0
2022-10-18T01:31:15.111Z,0
2022-10-18T01:32:17.252Z,0
2022-10-18T01:33:19.031Z,0
2022-10-18T01:34:21.173Z,0
2022-10-18T01:35:23.233Z,0
2022-10-18T01:36:24.953Z,0
2022-10-18T01:37:26.211Z,0
2022-10-18T01:38:28.108Z,0
2022-10-18T01:39:30.101Z,0
2022-10-18T01:40:32.152Z,0
2022-10-18T01:41:34.121Z,0
2022-10-18T01:42:36.136Z,0
2022-10-18T01:43:38.153Z,0
2022-10-18T01:44:40.137Z,0
2022-10-18T01:45:42.092Z,0
2022-10-18T01:46:44.293Z,0
2022-10-18T01:47:46.191Z,0
2022-10-18T01:48:48.251Z,0
2022-10-18T01:49:50.251Z,0
2022-10-18T01:50:57.191Z,0
2022-10-18T01:51:59.234Z,0
2022-10-18T01:53:01.132Z,0
2022-10-18T01:54:02.990Z,0
2022-10-18T01:55:03.995Z,0
2022-10-18T01:56:04.973Z,0
2022-10-18T01:57:06.052Z,0
2022-10-18T01:58:07.012Z,0
2022-10-18T01:59:08.111Z,0
2022-10-18T02:00:10.216Z,0
2022-10-18T02:04:15.321Z,0
2022-10-18T02:05:17.235Z,0
2022-10-18T02:06:19.146Z,0
2022-10-18T02:07:20.979Z,0
2022-10-18T02:08:23.841Z,0
2022-10-18T02:09:25.251Z,0
2022-10-18T02:10:27.134Z,0
2022-10-18T02:11:29.032Z,0
2022-10-18T02:12:30.147Z,0
2022-10-18T02:13:31.173Z,0
2022-10-18T02:14:33.091Z,0
2022-10-18T02:15:35.276Z,0
2022-10-18T02:16:37.093Z,0.11
2022-10-18T02:17:39.171Z,0
2022-10-18T02:18:41.253Z,0
2022-10-18T02:19:43.212Z,0
2022-10-18T02:20:45.101Z,0
2022-10-18T02:21:47.072Z,0
2022-10-18T02:22:49.154Z,0
2022-10-18T02:23:51.199Z,0
2022-10-18T02:24:53.171Z,0
2022-10-18T02:25:55.118Z,0
2022-10-18T02:26:57.231Z,0
2022-10-18T02:27:59.026Z,0.3
2022-10-18T02:29:01.121Z,0.22
2022-10-18T02:30:03.213Z,0.09
2022-10-18T02:31:05.117Z,0
2022-10-18T02:32:07.032Z,0
2022-10-18T02:33:09.093Z,0
2022-10-18T02:34:10.952Z,0
2022-10-18T02:35:12.052Z,0
2022-10-18T02:36:12.951Z,0
2022-10-18T02:37:14.024Z,0
2022-10-18T02:38:14.953Z,0
2022-10-18T02:39:16.111Z,0
2022-10-18T02:40:18.154Z,0
2022-10-18T02:41:20.142Z,0
2022-10-18T02:42:22.175Z,0
2022-10-18T02:43:23.973Z,0
2022-10-18T02:44:24.993Z,0
2022-10-18T02:45:25.972Z,0
2022-10-18T02:47:28.177Z,0
2022-10-18T02:48:29.151Z,0
2022-10-18T02:49:31.179Z,0
2022-10-18T02:50:33.152Z,0
2022-10-18T02:51:35.153Z,0.08
2022-10-18T02:52:37.274Z,0
2022-10-18T02:53:39.155Z,0
2022-10-18T02:54:41.132Z,0
2022-10-18T02:55:43.157Z,0
2022-10-18T02:56:45.112Z,0
2022-10-18T02:57:47.160Z,0
2022-10-18T02:58:49.160Z,0
2022-10-18T02:59:51.171Z,0
2022-10-18T03:00:53.113Z,0
2022-10-18T03:01:55.057Z,0
2022-10-18T03:02:55.992Z,0
2022-10-18T03:03:56.992Z,0
2022-10-18T03:04:58.032Z,0
2022-10-18T03:05:59.013Z,0
2022-10-18T03:06:59.971Z,0
2022-10-18T03:08:01.052Z,0
2022-10-18T03:09:03.172Z,0
2022-10-18T03:10:05.132Z,0
2022-10-18T03:11:07.132Z,0
2022-10-18T03:12:09.084Z,0
2022-10-18T03:13:11.111Z,0
2022-10-18T03:14:13.231Z,0
2022-10-18T03:15:15.100Z,0
2022-10-18T03:16:17.112Z,0
2022-10-18T03:17:19.201Z,0.05
2022-10-18T03:18:21.000Z,0
2022-10-18T03:19:22.051Z,0
2022-10-18T03:20:23.031Z,0
2022-10-18T03:21:25.071Z,0
2022-10-18T03:23:29.151Z,0
2022-10-18T03:24:31.151Z,0
2022-10-18T03:25:33.052Z,0
2022-10-18T03:26:33.975Z,0
2022-10-18T03:27:35.226Z,0
2022-10-18T03:28:37.207Z,0
2022-10-18T03:29:39.154Z,0
2022-10-18T03:30:41.231Z,0
2022-10-18T03:31:43.154Z,0
2022-10-18T03:32:45.148Z,0
2022-10-18T03:33:47.132Z,0
2022-10-18T03:34:49.015Z,0
2022-10-18T03:35:50.151Z,0
2022-10-18T03:36:52.032Z,0
2022-10-18T03:37:53.071Z,0
2022-10-18T03:38:55.171Z,0
2022-10-18T03:39:57.092Z,0
2022-10-18T03:40:59.316Z,0
2022-10-18T03:42:01.272Z,0
2022-10-18T03:43:03.172Z,0
2022-10-18T03:44:05.071Z,0
2022-10-18T03:45:07.180Z,0
2022-10-18T03:46:09.198Z,0
2022-10-18T03:47:11.158Z,0
2022-10-18T03:48:13.156Z,0
2022-10-18T03:49:15.172Z,0
2022-10-18T03:50:17.194Z,0
2022-10-18T03:51:19.263Z,0
2022-10-18T03:52:21.253Z,0
2022-10-18T03:53:23.065Z,0
2022-10-18T03:54:25.112Z,0
2022-10-18T03:55:27.212Z,0
2022-10-18T03:56:29.235Z,0
2022-10-18T03:57:31.351Z,0
2022-10-18T03:59:35.312Z,0
2022-10-18T04:00:37.404Z,0
2022-10-18T04:01:39.122Z,0
2022-10-18T04:02:41.139Z,0
2022-10-18T04:03:43.278Z,0
2022-10-18T04:04:45.253Z,0
2022-10-18T04:05:47.303Z,0
2022-10-18T04:06:49.172Z,0
2022-10-18T04:07:51.254Z,0
2022-10-18T04:08:53.078Z,0
2022-10-18T04:09:54.272Z,0
2022-10-18T04:10:56.168Z,0
2022-10-18T04:11:58.131Z,0
2022-10-18T04:13:00.141Z,0
2022-10-18T04:14:02.112Z,0
2022-10-18T04:15:03.075Z,0
2022-10-18T04:16:04.049Z,0
2022-10-18T04:17:05.061Z,0
2022-10-18T04:18:06.133Z,0
2022-10-18T04:19:08.111Z,0
2022-10-18T04:20:10.227Z,0
2022-10-18T04:21:12.172Z,0
2022-10-18T04:22:14.172Z,0
2022-10-18T04:23:16.139Z,0
2022-10-18T04:24:18.183Z,0
2022-10-18T04:25:20.194Z,0
2022-10-18T04:26:22.232Z,0
2022-10-18T04:27:24.253Z,0
2022-10-18T04:28:26.204Z,0
2022-10-18T04:29:28.052Z,0
2022-10-18T04:30:29.029Z,0
2022-10-18T04:31:30.252Z,0
2022-10-18T04:32:32.192Z,0
2022-10-18T04:33:34.211Z,0
2022-10-18T04:34:36.350Z,0
2022-10-18T04:35:38.191Z,0
2022-10-18T04:36:40.627Z,0
2022-10-18T04:37:42.131Z,0
2022-10-18T04:38:44.192Z,0
2022-10-18T04:39:47.476Z,0
2022-10-18T04:40:48.109Z,0
2022-10-18T04:41:50.193Z,0
2022-10-18T04:42:52.099Z,0
2022-10-18T04:43:54.152Z,0
2022-10-18T04:44:56.231Z,0
2022-10-18T04:45:58.092Z,0
2022-10-18T04:46:59.073Z,0
2022-10-18T04:48:00.295Z,0
2022-10-18T04:49:02.051Z,0
2022-10-18T04:50:03.161Z,0
2022-10-18T04:51:04.132Z,0
2022-10-18T04:52:05.119Z,0
2022-10-18T04:53:06.170Z,0
2022-10-18T04:54:08.204Z,0
2022-10-18T04:55:10.125Z,0
2022-10-18T04:56:12.032Z,0
2022-10-18T04:57:13.112Z,0
2022-10-18T04:58:14.073Z,0
2022-10-18T04:59:15.120Z,0
2022-10-18T05:00:16.059Z,0
2022-10-18T05:01:17.183Z,0
2022-10-18T05:02:19.043Z,0
2022-10-18T05:03:20.077Z,0
2022-10-18T05:04:21.106Z,0
2022-10-18T05:05:22.187Z,0
2022-10-18T05:06:23.052Z,0
2022-10-18T05:07:24.053Z,0
2022-10-18T05:08:25.112Z,0
2022-10-18T05:09:26.074Z,0
2022-10-18T05:10:27.071Z,0
2022-10-18T05:11:28.075Z,0
2022-10-18T05:12:29.228Z,0
2022-10-18T05:13:30.103Z,0
2022-10-18T05:14:31.051Z,0
2022-10-18T05:15:32.114Z,0
2022-10-18T05:16:33.075Z,0
2022-10-18T05:17:34.093Z,0
2022-10-18T05:18:35.192Z,0
2022-10-18T05:19:37.161Z,0
2022-10-18T05:20:39.321Z,0
2022-10-18T05:21:41.536Z,0
2022-10-18T05:22:43.192Z,0
2022-10-18T05:23:45.241Z,0
2022-10-18T05:24:47.259Z,0
2022-10-18T05:25:49.171Z,0
2022-10-18T05:26:51.211Z,0
2022-10-18T05:27:53.119Z,0
2022-10-18T05:28:54.219Z,0
2022-10-18T05:29:57.131Z,0
2022-10-18T05:30:58.173Z,0
2022-10-18T05:32:00.176Z,0
2022-10-18T05:33:02.357Z,0
2022-10-18T05:34:04.312Z,0
2022-10-18T05:35:06.258Z,0
2022-10-18T05:36:08.197Z,0
2022-10-18T05:37:10.252Z,0
2022-10-18T05:38:12.212Z,0
2022-10-18T05:39:14.274Z,0
2022-10-18T05:40:16.250Z,0
2022-10-18T05:41:18.215Z,0
2022-10-18T05:42:20.173Z,0
2022-10-18T05:43:22.232Z,0
2022-10-18T05:44:24.193Z,0
2022-10-18T05:45:26.314Z,0
2022-10-18T05:46:28.195Z,0
2022-10-18T05:47:30.286Z,0
2022-10-18T05:48:32.339Z,0
2022-10-18T05:49:34.413Z,0
2022-10-18T05:50:38.027Z,0
2022-10-18T05:51:37.135Z,0
2022-10-18T05:52:38.234Z,0
2022-10-18T05:53:40.193Z,0
2022-10-18T05:54:42.319Z,0
2022-10-18T05:55:44.193Z,0
2022-10-18T05:56:46.191Z,0
2022-10-18T05:57:48.222Z,0
2022-10-18T05:58:50.313Z,0
2022-10-18T05:59:52.261Z,0
2022-10-18T06:00:54.311Z,0
2022-10-18T06:01:56.218Z,0
2022-10-18T06:02:59.507Z,0
2022-10-18T06:04:00.273Z,0
2022-10-18T06:05:02.359Z,0
2022-10-18T06:06:04.271Z,0
2022-10-18T06:07:06.297Z,0
2022-10-18T06:08:10.178Z,0
2022-10-18T06:09:10.211Z,0
2022-10-18T06:10:12.172Z,0
2022-10-18T06:11:14.112Z,0
2022-10-18T06:12:15.173Z,0
2022-10-18T06:13:16.173Z,0
2022-10-18T06:14:17.110Z,0
2022-10-18T06:15:18.233Z,0
2022-10-18T06:16:20.405Z,0
2022-10-18T06:17:22.319Z,0
2022-10-18T06:18:24.212Z,0
2022-10-18T06:19:26.293Z,0
2022-10-18T06:20:28.337Z,0
2022-10-18T06:21:30.152Z,0
2022-10-18T06:22:31.158Z,0
2022-10-18T06:23:32.134Z,0
2022-10-18T06:24:33.194Z,0
2022-10-18T06:25:34.157Z,0
2022-10-18T06:26:35.192Z,0
2022-10-18T06:27:36.116Z,0
2022-10-18T06:28:37.212Z,0
2022-10-18T06:29:38.219Z,0
2022-10-18T06:30:40.293Z,0
2022-10-18T06:31:42.251Z,0
2022-10-18T06:32:44.576Z,0
2022-10-18T06:33:46.257Z,0
2022-10-18T06:34:48.240Z,0
2022-10-18T06:35:50.292Z,0
2022-10-18T06:36:56.217Z,0
2022-10-18T06:37:53.289Z,0
2022-10-18T06:38:55.316Z,0
2022-10-18T06:39:57.212Z,0
2022-10-18T06:40:59.236Z,0
2022-10-18T06:42:01.282Z,0
2022-10-18T06:43:16.479Z,0
2022-10-18T06:44:05.125Z,0
2022-10-18T06:45:06.220Z,0
2022-10-18T06:46:08.326Z,0
2022-10-18T06:47:10.338Z,0
2022-10-18T06:48:12.390Z,0
2022-10-18T06:49:15.359Z,0
2022-10-18T06:50:16.329Z,0
2022-10-18T06:51:18.300Z,0
2022-10-18T06:52:20.104Z,0
2022-10-18T06:53:21.246Z,0
2022-10-18T06:54:23.419Z,0
2022-10-18T06:55:25.338Z,0
2022-10-18T06:56:27.319Z,0
2022-10-18T06:57:29.259Z,0
2022-10-18T06:58:31.426Z,0
2022-10-18T06:59:33.312Z,0
2022-10-18T07:00:35.242Z,0
2022-10-18T07:01:37.355Z,0
2022-10-18T07:02:39.180Z,0
2022-10-18T07:03:41.626Z,0
2022-10-18T07:04:43.321Z,0
2022-10-18T07:05:45.280Z,0
2022-10-18T07:06:47.281Z,0
2022-10-18T07:07:51.716Z,0
2022-10-18T07:08:51.785Z,0
2022-10-18T07:09:53.338Z,0
2022-10-18T07:10:55.400Z,0
2022-10-18T07:11:57.299Z,0
2022-10-18T07:13:13.472Z,0
2022-10-18T07:14:00.428Z,0
2022-10-18T07:15:05.603Z,0
2022-10-18T07:16:04.199Z,0
2022-10-18T07:17:06.259Z,0
2022-10-18T07:18:08.238Z,0
2022-10-18T07:19:10.391Z,0
2022-10-18T07:20:12.369Z,0
2022-10-18T07:21:14.258Z,0
2022-10-18T07:22:16.399Z,0
2022-10-18T07:23:18.358Z,0
2022-10-18T07:24:20.345Z,0
2022-10-18T07:25:23.200Z,0
2022-10-18T07:26:24.262Z,0
2022-10-18T07:27:26.299Z,0
2022-10-18T07:28:28.205Z,0
2022-10-18T07:29:29.221Z,0
2022-10-18T07:30:30.188Z,0
2022-10-18T07:31:31.241Z,0
2022-10-18T07:32:33.360Z,0
2022-10-18T07:33:35.235Z,0
2022-10-18T07:34:37.439Z,0
2022-10-18T07:35:39.350Z,0
2022-10-18T07:36:41.761Z,0
2022-10-18T07:37:43.327Z,0
2022-10-18T07:38:45.284Z,0
2022-10-18T07:39:47.373Z,0
2022-10-18T07:40:49.288Z,0
2022-10-18T07:41:51.362Z,0.62
2022-10-18T07:42:53.180Z,0.31
2022-10-18T07:43:54.159Z,0.36
2022-10-18T07:44:55.311Z,0.49
2022-10-18T07:45:57.369Z,0.72
2022-10-18T07:46:59.358Z,0.6
2022-10-18T07:48:01.406Z,0.69
2022-10-18T07:49:03.381Z,0.63
2022-10-18T07:50:05.458Z,1.01
2022-10-18T07:51:07.318Z,0.96
2022-10-18T07:52:09.382Z,1.02
2022-10-18T07:53:11.400Z,0.84
2022-10-18T07:54:13.338Z,0.81
2022-10-18T07:55:15.385Z,1.02
2022-10-18T07:56:17.420Z,0.53
2022-10-18T07:57:19.300Z,0.38
2022-10-18T07:58:21.479Z,0.27
2022-10-18T07:59:23.480Z,0.66
2022-10-18T08:00:25.358Z,1.19
2022-10-18T08:01:27.716Z,1.12
2022-10-18T08:02:29.318Z,1.04
2022-10-18T08:03:31.327Z,1.29
2022-10-18T08:04:33.176Z,1.75
2022-10-18T08:05:34.314Z,1.02
2022-10-18T08:06:36.400Z,0.71
2022-10-18T08:07:38.261Z,0.74
2022-10-18T08:08:39.219Z,0.45
2022-10-18T08:09:40.393Z,0.43
2022-10-18T08:10:42.912Z,0.65
2022-10-18T08:11:44.358Z,0.64
2022-10-18T08:12:46.404Z,0.99
2022-10-18T08:13:48.448Z,0.77
2022-10-18T08:14:50.415Z,0.71
2022-10-18T08:15:52.340Z,0.58
2022-10-18T08:16:54.358Z,0.34
2022-10-18T08:17:56.378Z,0.85
2022-10-18T08:18:58.339Z,1.04
2022-10-18T08:20:11.223Z,1.09
2022-10-18T08:21:02.401Z,0.91
2022-10-18T08:22:04.398Z,0.95
2022-10-18T08:23:06.398Z,1.05
2022-10-18T08:24:08.458Z,1.45
2022-10-18T08:25:10.386Z,1.1
2022-10-18T08:26:12.406Z,1.16
2022-10-18T08:27:14.363Z,1.06
2022-10-18T08:28:16.340Z,1.12
2022-10-18T08:29:23.156Z,0.79
2022-10-18T08:30:20.478Z,0.8
2022-10-18T08:31:22.378Z,0.39
2022-10-18T08:32:24.286Z,0.2
2022-10-18T08:33:26.343Z,0.49
2022-10-18T08:34:28.386Z,0.59
2022-10-18T08:35:30.248Z,0.61
2022-10-18T08:36:31.339Z,0.51
2022-10-18T08:37:33.525Z,0.92
2022-10-18T08:38:34.252Z,1.34
2022-10-18T08:39:35.361Z,0.97
2022-10-18T08:40:37.558Z,1.02
2022-10-18T08:41:39.307Z,1.43
2022-10-18T08:42:41.344Z,0.9
2022-10-18T08:43:43.454Z,0.94
2022-10-18T08:44:45.301Z,0.73
2022-10-18T08:45:47.423Z,0.76
2022-10-18T08:46:49.232Z,0.61
2022-10-18T08:47:50.191Z,0.63
2022-10-18T08:48:51.209Z,0.13
2022-10-18T08:49:52.326Z,0.34
2022-10-18T08:50:54.498Z,0.61
2022-10-18T08:51:56.359Z,0.73
2022-10-18T08:52:58.419Z,0.63
2022-10-18T08:54:00.358Z,0.64
2022-10-18T08:55:02.440Z,0.1
2022-10-18T08:56:04.372Z,0.73
2022-10-18T08:57:06.447Z,1.11
2022-10-18T08:58:08.470Z,1.1
2022-10-18T08:59:10.384Z,0.68
2022-10-18T09:00:12.380Z,1.41
2022-10-18T09:01:14.404Z,0.53
2022-10-18T09:02:16.393Z,0.26
2022-10-18T09:03:18.471Z,0.27
2022-10-18T09:04:20.323Z,0.71
2022-10-18T09:05:22.378Z,0.95
2022-10-18T09:06:24.440Z,0.78
2022-10-18T09:07:26.359Z,0.29
2022-10-18T09:08:28.319Z,0.36
2022-10-18T09:09:30.358Z,1.3
2022-10-18T09:10:32.209Z,1.7
2022-10-18T09:11:33.279Z,1.28
2022-10-18T09:12:34.527Z,1.1
2022-10-18T09:13:35.301Z,1.92
2022-10-18T09:14:37.298Z,1.34
2022-10-18T09:15:39.498Z,1.35
2022-10-18T09:16:44.513Z,0.97
2022-10-18T09:17:46.540Z,0.73
2022-10-18T09:18:48.439Z,1.42
2022-10-18T09:19:50.446Z,1.21
2022-10-18T09:20:52.499Z,1.06
2022-10-18T09:21:54.463Z,1.17
2022-10-18T09:22:56.438Z,0.59
2022-10-18T09:23:58.420Z,1.38
2022-10-18T09:25:00.459Z,1
2022-10-18T09:26:02.339Z,0.81
2022-10-18T09:27:04.439Z,0.87
2022-10-18T09:28:06.482Z,0.85
2022-10-18T09:29:08.456Z,0.74
2022-10-18T09:30:10.500Z,0
2022-10-18T09:31:12.399Z,0
2022-10-18T09:32:14.458Z,0.49
2022-10-18T09:33:16.243Z,0.3
2022-10-18T09:34:17.239Z,0
2022-10-18T09:35:18.358Z,0
2022-10-18T09:36:20.459Z,0.21
2022-10-18T09:37:22.399Z,0.37
2022-10-18T09:39:26.386Z,0
2022-10-18T09:40:28.478Z,0.42
2022-10-18T09:41:30.418Z,0.28
2022-10-18T09:42:32.813Z,0.21
2022-10-18T09:43:34.491Z,0.38
2022-10-18T09:44:36.340Z,0.35
2022-10-18T09:45:38.549Z,0
2022-10-18T09:46:40.418Z,0.14
2022-10-18T09:47:42.423Z,0.15
2022-10-18T09:48:44.424Z,0.17
2022-10-18T09:49:46.439Z,1.46
2022-10-18T09:50:48.466Z,1.49
2022-10-18T09:51:50.359Z,0.5
2022-10-18T09:52:52.234Z,0.08
2022-10-18T09:53:53.279Z,0
2022-10-18T09:54:55.423Z,0.89
2022-10-18T09:55:57.499Z,1.14
2022-10-18T09:56:59.459Z,0.25
2022-10-18T09:58:01.479Z,0.13
2022-10-18T09:59:03.512Z,0.22
2022-10-18T10:00:05.562Z,0.85
2022-10-18T10:01:07.498Z,0.8
2022-10-18T10:02:09.559Z,0.76
2022-10-18T10:03:11.479Z,0.64
2022-10-18T10:04:13.455Z,0.42
2022-10-18T10:05:15.404Z,0.49
2022-10-18T10:06:17.398Z,0.78
2022-10-18T10:07:19.439Z,1.01
2022-10-18T10:08:21.440Z,0.99
2022-10-18T10:09:23.439Z,0.73
2022-10-18T10:10:25.326Z,1.28
2022-10-18T10:11:27.441Z,0.92
2022-10-18T10:12:29.478Z,0.41
2022-10-18T10:13:31.458Z,0.5
2022-10-18T10:14:33.505Z,0.19
2022-10-18T10:15:37.019Z,0.29
2022-10-18T10:16:37.398Z,0.35
2022-10-18T10:17:39.538Z,0.34
2022-10-18T10:18:41.299Z,0.14
2022-10-18T10:19:43.318Z,0.16
2022-10-18T10:20:44.222Z,0.19
2022-10-18T10:21:45.328Z,0
2022-10-18T10:22:47.595Z,0
2022-10-18T10:23:49.460Z,0.32
2022-10-18T10:24:51.419Z,0.58
2022-10-18T10:25:53.447Z,0.92
2022-10-18T10:26:55.319Z,0.62
2022-10-18T10:27:57.451Z,0.26
2022-10-18T10:28:59.584Z,0
2022-10-18T10:30:04.286Z,0.4
2022-10-18T10:31:03.445Z,0.4
2022-10-18T10:32:05.498Z,0.55
2022-10-18T10:33:07.400Z,0.43
2022-10-18T10:34:09.441Z,0.76
2022-10-18T10:35:14.388Z,1.05
2022-10-18T10:36:13.360Z,1.02
2022-10-18T10:37:15.439Z,1.65
2022-10-18T10:38:17.378Z,1.16
2022-10-18T10:39:19.501Z,1.64
2022-10-18T10:40:24.033Z,0.98
2022-10-18T10:41:23.527Z,1.03
2022-10-18T10:42:25.479Z,0.25
2022-10-18T10:43:42.523Z,0.12
2022-10-18T10:44:29.387Z,0
2022-10-18T10:45:31.465Z,0.85
2022-10-18T10:46:33.478Z,0.79
2022-10-18T10:47:35.284Z,0.5
2022-10-18T10:48:36.559Z,0.29
2022-10-18T10:49:40.518Z,0.57
2022-10-18T10:50:40.441Z,0.71
2022-10-18T10:51:42.379Z,0.28
2022-10-18T10:52:44.455Z,0.51
2022-10-18T10:53:46.467Z,0.19
2022-10-18T10:54:51.478Z,0
2022-10-18T10:55:50.299Z,0.08
2022-10-18T10:56:51.259Z,0.31
2022-10-18T10:57:52.338Z,1.29
2022-10-18T10:58:53.406Z,1.3
2022-10-18T10:59:54.339Z,0.39
2022-10-18T11:00:56.505Z,0.32
2022-10-18T11:01:58.428Z,0.22
2022-10-18T11:03:06.120Z,0.66
2022-10-18T11:04:02.556Z,0.94
2022-10-18T11:05:04.539Z,0.93
2022-10-18T11:06:06.531Z,0.48
2022-10-18T11:07:08.538Z,1.68
2022-10-18T11:08:10.452Z,0.75
2022-10-18T11:09:12.479Z,1.03
2022-10-18T11:10:14.482Z,0.57
2022-10-18T11:11:18.006Z,0.6
2022-10-18T11:12:18.479Z,1.19
2022-10-18T11:13:20.500Z,0.57
2022-10-18T11:14:26.769Z,0.58
2022-10-18T11:15:24.458Z,0.11
2022-10-18T11:16:26.644Z,0.29
2022-10-18T11:17:28.538Z,0.6
2022-10-18T11:18:30.513Z,0.68
2022-10-18T11:19:32.541Z,1.36
2022-10-18T11:20:34.320Z,2.11
2022-10-18T11:21:35.270Z,0.92
2022-10-18T11:22:36.331Z,0.73
2022-10-18T11:23:37.301Z,1.51
2022-10-18T11:24:38.226Z,1.86
2022-10-18T11:25:39.345Z,1.58
2022-10-18T11:26:41.035Z,2.11
2022-10-18T11:27:42.560Z,1.52
2022-10-18T11:28:44.519Z,1.43
2022-10-18T11:29:46.568Z,0.99
2022-10-18T11:30:48.478Z,0.68
2022-10-18T11:31:50.522Z,0.23
2022-10-18T11:32:52.518Z,0.52
2022-10-18T11:34:08.549Z,0.37
2022-10-18T11:34:56.519Z,0.99
2022-10-18T11:36:02.920Z,1.13
2022-10-18T11:37:22.762Z,0.99
2022-10-18T11:38:02.677Z,0.91
2022-10-18T11:39:04.438Z,1.8
2022-10-18T11:40:06.493Z,1.72
2022-10-18T11:41:08.440Z,1.15
2022-10-18T11:42:10.490Z,1.09
2022-10-18T11:43:12.560Z,0.81
2022-10-18T11:44:14.420Z,0.29
2022-10-18T11:45:16.518Z,0.26
2022-10-18T11:46:18.418Z,0.47
2022-10-18T11:47:20.635Z,0.85
2022-10-18T11:48:22.439Z,0.34
2022-10-18T11:49:24.519Z,0.48
2022-10-18T11:50:26.460Z,0.7
2022-10-18T11:51:33.799Z,0.59
2022-10-18T11:52:30.499Z,1.05
2022-10-18T11:53:32.499Z,1.1
2022-10-18T11:54:34.566Z,1.4
2022-10-18T11:55:36.478Z,1.93
2022-10-18T11:56:38.418Z,1.7
2022-10-18T11:57:40.481Z,1.69
2022-10-18T11:58:42.639Z,0.41
2022-10-18T11:59:44.539Z,0.83
2022-10-18T12:00:46.502Z,1.93
2022-10-18T12:01:48.538Z,1.14
2022-10-18T12:02:50.561Z,1.31
2022-10-18T12:03:52.479Z,1.3
2022-10-18T12:05:18.841Z,1.7
2022-10-18T12:05:56.409Z,1.49
2022-10-18T12:06:58.559Z,1.2
2022-10-18T12:08:00.479Z,1.15
2022-10-18T12:09:02.579Z,1.62
2022-10-18T12:10:04.559Z,0.82
2022-10-18T12:11:06.937Z,1.42
2022-10-18T12:12:08.509Z,0.78
2022-10-18T12:13:10.306Z,0.99
2022-10-18T12:14:11.319Z,0.66
2022-10-18T12:15:12.419Z,1.05
2022-10-18T12:16:14.482Z,0.86
2022-10-18T12:18:18.545Z,1.37
2022-10-18T12:19:25.248Z,1.68
2022-10-18T12:20:25.350Z,0.97
2022-10-18T12:21:26.379Z,1.25
2022-10-18T12:22:27.402Z,0.99
2022-10-18T12:23:28.338Z,0.64
2022-10-18T12:24:29.285Z,1.68
2022-10-18T12:25:30.325Z,1.06
2022-10-18T12:26:31.340Z,1.19
2022-10-18T12:27:32.359Z,1.3
2022-10-18T12:28:33.459Z,1.16
2022-10-18T12:29:35.620Z,1.22
2022-10-18T12:30:37.484Z,1.37
2022-10-18T12:31:39.479Z,1.64
2022-10-18T12:32:51.420Z,0.46
2022-10-18T12:33:43.907Z,0.86
2022-10-18T12:34:45.541Z,0.65
2022-10-18T12:35:47.478Z,0.58
2022-10-18T12:36:49.434Z,0.87
2022-10-18T12:37:51.439Z,0.54
2022-10-18T12:38:53.319Z,0.55
2022-10-18T12:40:12.338Z,0.41
2022-10-18T12:40:56.332Z,0.8
2022-10-18T12:41:57.399Z,0.81
2022-10-18T12:42:58.279Z,1.01
2022-10-18T12:43:59.371Z,1.8
2022-10-18T12:45:00.379Z,1.28
2022-10-18T12:46:01.279Z,1.11
2022-10-18T12:47:02.335Z,0.93
2022-10-18T12:48:03.326Z,1.1
2022-10-18T12:49:04.352Z,0.91
2022-10-18T12:50:05.421Z,0.83
2022-10-18T12:51:07.579Z,0.57
2022-10-18T12:52:09.498Z,0.61
2022-10-18T12:53:11.443Z,0.3
2022-10-18T12:54:13.559Z,0.48
2022-10-18T12:55:16.832Z,1.1
2022-10-18T12:56:18.343Z,0.49
2022-10-18T12:57:19.499Z,0.65
2022-10-18T12:58:21.518Z,0.62
2022-10-18T12:59:23.499Z,0.26
2022-10-18T13:00:25.450Z,0
2022-10-18T13:01:27.662Z,0.28
2022-10-18T13:02:29.519Z,0.47
2022-10-18T13:03:31.522Z,0.88
2022-10-18T13:04:33.421Z,0.6
2022-10-18T13:05:48.690Z,0.94
2022-10-18T13:06:37.548Z,0.52
2022-10-18T13:07:39.581Z,0.32
2022-10-18T13:08:41.520Z,0.47
2022-10-18T13:09:43.950Z,0.62
2022-10-18T13:10:45.406Z,0.19
2022-10-18T13:11:47.680Z,0.38
2022-10-18T13:12:49.523Z,0.62
2022-10-18T13:13:51.525Z,0.86
2022-10-18T13:14:59.376Z,0.95
2022-10-18T13:15:55.561Z,2.01
2022-10-18T13:16:57.559Z,1.5
2022-10-18T13:17:59.559Z,0.69
2022-10-18T13:19:01.479Z,0.87
2022-10-18T13:20:24.363Z,0.84
2022-10-18T13:21:05.460Z,0.5
2022-10-18T13:22:07.559Z,0.77
2022-10-18T13:23:09.672Z,1.62
2022-10-18T13:24:11.461Z,1.89
2022-10-18T13:25:13.396Z,1.81
2022-10-18T13:26:15.509Z,1.91
2022-10-18T13:27:34.771Z,1.46
2022-10-18T13:28:19.419Z,1.24
2022-10-18T13:29:21.543Z,0.81
2022-10-18T13:30:23.539Z,1.23
2022-10-18T13:31:25.608Z,1.19
2022-10-18T13:32:27.519Z,1.49
2022-10-18T13:33:29.368Z,1.81
2022-10-18T13:34:30.318Z,1.26
2022-10-18T13:35:31.435Z,1.32
2022-10-18T13:36:32.459Z,0.94
2022-10-18T13:37:34.461Z,2.07
2022-10-18T13:38:36.558Z,1.69
2022-10-18T13:39:38.473Z,1.85
2022-10-18T13:40:40.533Z,2.37
2022-10-18T13:41:42.447Z,1.51
2022-10-18T13:42:43.879Z,0.78
2022-10-18T13:43:48.909Z,0.81
2022-10-18T13:44:47.493Z,1.24
2022-10-18T13:45:49.490Z,1.4
2022-10-18T13:46:51.525Z,1.11
2022-10-18T13:47:53.558Z,1.05
2022-10-18T13:48:55.487Z,0.2
2022-10-18T13:49:59.530Z,0.51
2022-10-18T13:50:59.630Z,0.6
2022-10-18T13:52:01.555Z,0.18
2022-10-18T13:53:03.547Z,0.31
2022-10-18T13:54:05.559Z,0.44
2022-10-18T13:55:07.492Z,0
2022-10-18T13:56:09.559Z,0.24
2022-10-18T13:57:11.494Z,0.37
2022-10-18T13:58:13.686Z,0.44
2022-10-18T13:59:15.706Z,0.24
2022-10-18T14:00:17.681Z,0.05
2022-10-18T14:01:19.505Z,0
2022-10-18T14:02:30.935Z,0.46
2022-10-18T14:03:44.367Z,0.71
2022-10-18T14:04:25.426Z,1.27
2022-10-18T14:05:27.519Z,0.74
2022-10-18T14:06:29.603Z,0.78
2022-10-18T14:07:31.559Z,0.65
2022-10-18T14:09:54.239Z,0.62
2022-10-18T14:10:44.110Z,0.69
2022-10-18T14:11:41.112Z,0.36
2022-10-18T14:12:41.499Z,0.44
2022-10-18T14:13:44.021Z,0.64
2022-10-18T14:14:45.566Z,0.57
2022-10-18T14:15:47.559Z,0.58
2022-10-18T14:16:49.579Z,0.6
2022-10-18T14:17:51.430Z,0.41
2022-10-18T14:18:53.541Z,0.65
2022-10-18T14:19:55.496Z,0.77
2022-10-18T14:21:12.656Z,0.87
2022-10-18T14:21:59.484Z,0.37
2022-10-18T14:23:01.561Z,0.53
2022-10-18T14:24:03.498Z,0.62
2022-10-18T14:25:05.550Z,1.17
2022-10-18T14:26:07.539Z,0.48
2022-10-18T14:27:09.639Z,0.3
2022-10-18T14:28:12.402Z,0.46
2022-10-18T14:29:13.525Z,0.21
2022-10-18T14:30:15.526Z,0.49
2022-10-18T14:31:17.600Z,0.53
2022-10-18T14:32:19.461Z,0.54
2022-10-18T14:33:21.471Z,0.28
2022-10-18T14:34:23.437Z,0.7
2022-10-18T14:35:32.364Z,0.32
2022-10-18T14:36:26.423Z,0.49
2022-10-18T14:37:28.493Z,0.42
2022-10-18T14:38:30.491Z,0.29
2022-10-18T14:39:32.566Z,0.19
2022-10-18T14:40:34.512Z,0.37